Time;durP1;ratioP1;P1;durP2;ratioP2;P2;SDS_P1;SDS_P2;PMS_P1;PMS_P2;Temp;Humidity;BMP_temperature;BMP_pressure;BME280_temperature;BME280_humidity;BME280_pressure;Samples;Min_cycle;Max_cycle;Signal;HPM_P1;HPM_P2
2022/09/17 00:00:00;;;;;;;15.68;5.45;;;;;;;20.12;100.00;-18299.25;5072019;28;20189;-64
2022/09/17 00:02:28;;;;;;;10.83;5.50;;;;;;;20.22;100.00;-18301.53;5071822;28;20199;-64
2022/09/17 00:04:55;;;;;;;7.53;5.20;;;;;;;20.06;100.00;-18297.81;5071866;28;20231;-63
2022/09/17 00:07:22;;;;;;;12.90;6.03;;;;;;;20.09;100.00;-18298.53;5071671;28;20191;-63
2022/09/17 00:09:49;;;;;;;15.20;7.07;;;;;;;20.06;100.00;-18297.81;5072058;28;20192;-63
2022/09/17 00:12:18;;;;;;;17.63;6.87;;;;;;;19.96;100.00;-18295.44;5072275;28;20579;-63
2022/09/17 00:14:46;;;;;;;24.87;6.77;;;;;;;19.99;100.00;-18296.28;5071679;28;20181;-63
2022/09/17 00:17:13;;;;;;;17.10;8.37;;;;;;;20.12;100.00;-18299.13;5071506;28;20240;-63
2022/09/17 00:19:40;;;;;;;11.02;7.95;;;;;;;20.14;100.00;-18299.72;5071691;28;20196;-64
2022/09/17 00:22:07;;;;;;;8.88;8.10;;;;;;;20.12;100.00;-18299.25;5071395;28;20196;-64
2022/09/17 00:24:34;;;;;;;13.33;9.40;;;;;;;20.26;100.00;-18302.59;5071682;28;20212;-63
2022/09/17 00:27:01;;;;;;;11.50;8.13;;;;;;;20.29;100.00;-18303.19;5071613;28;20185;-64
2022/09/17 00:29:27;;;;;;;16.35;7.43;;;;;;;20.11;100.00;-18298.91;5071318;28;20189;-63
2022/09/17 00:31:56;;;;;;;16.90;8.25;;;;;;;20.36;100.00;-18304.97;5071907;28;20184;-64
2022/09/17 00:34:22;;;;;;;19.60;9.00;;;;;;;20.39;100.00;-18305.56;5071451;28;20188;-64
2022/09/17 00:36:49;;;;;;;13.88;8.98;;;;;;;20.16;100.00;-18300.22;5071451;28;20180;-64
2022/09/17 00:39:16;;;;;;;15.93;9.27;;;;;;;20.20;100.00;-18301.03;5071461;28;20189;-63
2022/09/17 00:41:44;;;;;;;16.25;9.27;;;;;;;20.17;100.00;-18300.31;5071304;28;20195;-63
2022/09/17 00:44:40;;;;;;;18.85;9.30;;;;;;;20.14;100.00;-18299.63;5071296;28;20296;-64
2022/09/17 00:47:15;;;;;;;9.80;8.80;;;;;;;20.03;100.00;-18297.09;5071580;28;20704;-64
2022/09/17 00:49:43;;;;;;;15.93;8.67;;;;;;;19.87;100.00;-18293.28;5071300;28;20211;-64
2022/09/17 00:52:15;;;;;;;18.57;8.60;;;;;;;19.76;100.00;-18290.66;5071546;28;20563;-63
2022/09/17 00:54:48;;;;;;;20.67;9.30;;;;;;;19.91;100.00;-18294.25;5071238;28;20195;-63
2022/09/17 00:57:16;;;;;;;14.27;8.93;;;;;;;20.02;100.00;-18296.88;5071042;28;20223;-64
2022/09/17 00:59:46;;;;;;;15.30;8.00;;;;;;;20.08;100.00;-18298.41;5070998;28;20184;-63
2022/09/17 01:02:15;;;;;;;13.83;9.27;;;;;;;20.12;100.00;-18299.25;5071789;28;20287;-64
2022/09/17 01:04:42;;;;;;;14.40;8.70;;;;;;;20.23;100.00;-18301.88;5074844;28;20209;-64
2022/09/17 01:07:18;;;;;;;12.03;8.40;;;;;;;20.34;100.00;-18304.50;5074762;28;20242;-63
2022/09/17 01:09:52;;;;;;;14.00;7.57;;;;;;;20.26;100.00;-18302.59;5074699;28;20189;-63
2022/09/17 01:12:45;;;;;;;17.52;7.28;;;;;;;20.43;100.00;-18306.53;5074695;28;20180;-64
2022/09/17 01:15:24;;;;;;;7.50;6.75;;;;;;;20.38;100.00;-18305.34;5072426;28;20192;-63
2022/09/17 01:18:17;;;;;;;12.60;6.85;;;;;;;20.61;100.00;-18310.69;5074433;28;20228;-63
2022/09/17 01:21:21;;;;;;;9.13;6.32;;;;;;;20.66;100.00;-18312.00;5074903;28;20185;-63
2022/09/17 01:24:32;;;;;;;12.07;5.53;;;;;;;20.66;100.00;-18312.00;5074842;28;20202;-64
2022/09/17 01:27:32;;;;;;;13.15;5.60;;;;;;;20.76;100.00;-18314.41;5055184;28;20200;-63
2022/09/17 01:30:35;;;;;;;13.60;5.93;;;;;;;20.79;100.00;-18315.09;5074351;28;20185;-63
2022/09/17 01:33:11;;;;;;;7.75;5.30;;;;;;;20.72;100.00;-18313.31;5074266;28;20185;-64
2022/09/17 01:35:53;;;;;;;14.60;4.85;;;;;;;20.77;100.00;-18314.50;5074582;28;20195;-64
2022/09/17 01:38:27;;;;;;;5.97;4.15;;;;;;;20.69;100.00;-18312.59;5074533;28;20292;-63
2022/09/17 01:41:06;;;;;;;11.60;4.95;;;;;;;20.81;100.00;-18315.59;5074542;28;20202;-63
2022/09/17 01:43:38;;;;;;;10.63;5.03;;;;;;;20.84;100.00;-18316.31;5074435;28;20643;-65
2022/09/17 01:46:12;;;;;;;10.40;4.70;;;;;;;20.87;100.00;-18317.03;5074308;28;20215;-64
2022/09/17 01:48:44;;;;;;;7.95;4.30;;;;;;;20.75;100.00;-18314.16;5074062;28;20275;-63
2022/09/17 01:51:15;;;;;;;17.70;5.68;;;;;;;20.83;100.00;-18315.94;5074437;28;20629;-63
2022/09/17 01:53:47;;;;;;;7.15;4.75;;;;;;;21.02;100.00;-18320.47;5073987;28;20189;-64
2022/09/17 01:56:19;;;;;;;4.47;4.10;;;;;;;21.05;100.00;-18321.19;5073910;28;20193;-64
2022/09/17 01:58:52;;;;;;;8.23;4.32;;;;;;;20.99;100.00;-18319.75;5073779;28;20189;-64
2022/09/17 02:01:24;;;;;;;10.57;4.07;;;;;;;20.93;100.00;-18318.44;5074181;28;20264;-64
2022/09/17 02:03:58;;;;;;;7.50;4.17;;;;;;;21.02;100.00;-18320.47;5072482;28;20227;-64
2022/09/17 02:06:29;;;;;;;6.68;4.70;;;;;;;20.89;100.00;-18317.50;5073723;28;20215;-64
2022/09/17 02:09:01;;;;;;;8.00;4.40;;;;;;;20.96;100.00;-18317.25;5073904;28;20587;-64
2022/09/17 02:11:29;;;;;;;16.50;4.72;;;;;;;20.94;100.00;-18318.69;5074006;28;20189;-64
2022/09/17 02:13:59;;;;;;;10.48;4.35;;;;;;;21.04;100.00;-18320.81;5073501;28;20268;-63
2022/09/17 02:16:29;;;;;;;12.27;5.40;;;;;;;21.06;100.00;-18321.41;5073689;28;20644;-63
2022/09/17 02:19:05;;;;;;;18.95;6.70;;;;;;;21.02;100.00;-18320.47;5073795;28;20554;-63
2022/09/17 02:21:41;;;;;;;16.58;6.90;;;;;;;21.12;100.00;-18322.72;5073430;28;20226;-63
2022/09/17 02:24:17;;;;;;;20.73;8.13;;;;;;;21.10;100.00;-18322.38;5073846;28;20203;-63
2022/09/17 02:26:48;;;;;;;10.90;7.70;;;;;;;21.04;100.00;-18320.94;5073700;28;20188;-64
2022/09/17 02:29:25;;;;;;;26.63;7.78;;;;;;;21.04;100.00;-18320.94;5073437;28;20196;-64
2022/09/17 02:31:53;;;;;;;21.83;8.23;;;;;;;20.92;100.00;-18318.09;5073622;28;20242;-63
2022/09/17 02:34:21;;;;;;;23.58;10.60;;;;;;;20.91;100.00;-18317.97;5073234;28;20231;-63
2022/09/17 02:36:48;;;;;;;19.70;12.18;;;;;;;21.00;100.00;-18320.00;5073076;28;20224;-63
2022/09/17 02:39:16;;;;;;;16.00;11.43;;;;;;;21.05;100.00;-18321.06;5073162;28;20193;-63
2022/09/17 02:41:52;;;;;;;21.73;14.05;;;;;;;20.97;100.00;-18319.28;5073367;28;20280;-63
2022/09/17 02:44:31;;;;;;;32.85;17.25;;;;;;;20.88;100.00;-18317.25;5072974;28;20208;-64
2022/09/17 02:47:27;;;;;;;52.60;23.02;;;;;;;20.82;100.00;-18315.72;5073249;28;20263;-64
2022/09/17 02:50:17;;;;;;;30.08;17.38;;;;;;;20.70;100.00;-18312.84;5072848;28;20197;-64
2022/09/17 02:52:57;;;;;;;27.57;18.07;;;;;;;20.75;100.00;-18314.03;5072762;28;20271;-64
2022/09/17 02:55:36;;;;;;;30.33;17.05;;;;;;;20.74;100.00;-18313.81;5071904;28;20509;-63
2022/09/17 02:58:15;;;;;;;24.67;16.30;;;;;;;20.73;100.00;-18313.69;5073029;28;20189;-64
2022/09/17 03:00:42;;;;;;;23.70;15.68;;;;;;;20.69;100.00;-18312.59;5072672;28;20242;-63
2022/09/17 03:03:15;;;;;;;31.30;16.05;;;;;;;20.72;100.00;-18313.31;5072466;28;20189;-64
2022/09/17 03:05:43;;;;;;;27.70;15.73;;;;;;;20.78;100.00;-18314.75;5072488;28;20205;-64
2022/09/17 03:08:13;;;;;;;45.35;18.02;;;;;;;20.76;100.00;-18314.28;5072804;28;20195;-64
2022/09/17 03:10:41;;;;;;;27.60;16.47;;;;;;;20.62;100.00;-18311.06;5072792;28;20235;-63
2022/09/17 03:13:08;;;;;;;25.20;15.80;;;;;;;20.58;100.00;-18310.09;5072619;28;20195;-63
2022/09/17 03:15:37;;;;;;;22.87;14.07;;;;;;;20.48;100.00;-18307.84;5072331;28;20191;-63
2022/09/17 03:18:04;;;;;;;19.58;12.90;;;;;;;20.47;100.00;-18307.47;5072184;28;20232;-63
2022/09/17 03:20:32;;;;;;;32.10;15.63;;;;;;;20.42;100.00;-18306.28;5072229;28;20189;-63
2022/09/17 03:22:59;;;;;;;30.02;15.18;;;;;;;20.50;100.00;-18308.19;5072428;28;20230;-63
2022/09/17 03:25:26;;;;;;;41.10;15.10;;;;;;;20.48;100.00;-18307.84;5071435;28;20201;-63
2022/09/17 03:27:53;;;;;;;32.90;15.00;;;;;;;20.36;100.00;-18304.97;5072124;28;20200;-64
2022/09/17 03:30:20;;;;;;;23.98;13.85;;;;;;;20.25;100.00;-18302.34;5072121;28;20188;-63
2022/09/17 03:32:47;;;;;;;16.45;12.90;;;;;;;19.94;100.00;-18294.97;5072335;28;20184;-63
2022/09/17 03:35:14;;;;;;;27.83;12.00;;;;;;;20.15;100.00;-18299.84;5072041;28;20200;-64
2022/09/17 03:37:43;;;;;;;22.80;13.43;;;;;;;20.19;100.00;-18300.94;5072033;28;20195;-64
2022/09/17 03:40:10;;;;;;;23.93;13.13;;;;;;;20.17;100.00;-18300.44;5071883;28;20184;-64
2022/09/17 03:42:37;;;;;;;26.37;13.57;;;;;;;20.22;100.00;-18301.53;5072190;28;20204;-64
2022/09/17 03:45:04;;;;;;;27.08;13.02;;;;;;;19.82;100.00;-18292.09;5071806;28;20279;-64
2022/09/17 03:47:31;;;;;;;23.17;13.20;;;;;;;19.84;100.00;-18292.56;5071739;28;20185;-63
2022/09/17 03:49:58;;;;;;;19.83;13.67;;;;;;;19.71;100.00;-18289.47;5071812;28;20272;-63
2022/09/17 03:52:27;;;;;;;27.57;16.27;;;;;;;19.64;100.00;-18287.81;5071768;28;20185;-63
2022/09/17 03:54:55;;;;;;;24.27;17.63;;;;;;;19.56;100.00;-18286.13;5071670;28;20195;-64
2022/09/17 03:57:22;;;;;;;30.63;18.17;;;;;;;19.64;100.00;-18287.94;5072028;28;20188;-62
2022/09/17 03:59:50;;;;;;;32.20;16.17;;;;;;;19.65;100.00;-18288.03;5071613;28;20189;-63
2022/09/17 04:02:19;;;;;;;31.00;15.13;;;;;;;19.67;100.00;-18288.63;5072054;28;20180;-63
2022/09/17 04:04:46;;;;;;;34.47;17.13;;;;;;;19.78;100.00;-18291.16;5071819;28;20675;-64
2022/09/17 04:07:12;;;;;;;30.70;16.07;;;;;;;19.79;100.00;-18291.38;5071569;28;20216;-64
2022/09/17 04:09:39;;;;;;;23.83;15.83;;;;;;;19.77;100.00;-18290.91;5071512;28;20191;-63
2022/09/17 04:12:08;;;;;;;28.93;15.73;;;;;;;19.79;100.00;-18291.38;5071410;28;20201;-64
2022/09/17 04:14:35;;;;;;;22.93;16.00;;;;;;;19.82;100.00;-18292.09;5071578;28;20185;-63
2022/09/17 04:17:01;;;;;;;29.17;16.27;;;;;;;19.91;100.00;-18294.25;5071343;28;20228;-64
2022/09/17 04:19:28;;;;;;;31.63;15.63;;;;;;;19.92;100.00;-18294.59;5071769;28;20576;-64
2022/09/17 04:21:55;;;;;;;27.20;15.30;;;;;;;20.04;100.00;-18297.34;5071421;28;20181;-63
2022/09/17 04:24:22;;;;;;;28.37;14.67;;;;;;;20.05;100.00;-18297.72;5071458;28;20189;-63
2022/09/17 04:26:49;;;;;;;21.42;13.75;;;;;;;20.59;100.00;-18310.22;5070044;28;20250;-63
2022/09/17 04:29:17;;;;;;;36.25;15.65;;;;;;;20.90;100.00;-18317.59;5071757;28;20188;-64
2022/09/17 04:31:44;;;;;;;37.90;15.55;;;;;;;21.20;100.00;-18324.75;5071641;28;20204;-63
2022/09/17 04:34:11;;;;;;;34.63;12.55;;;;;;;21.30;100.00;-18327.13;5071343;28;20231;-64
2022/09/17 04:36:38;;;;;;;23.70;11.88;;;;;;;21.56;100.00;-18333.22;5072717;28;20184;-63
2022/09/17 04:39:05;;;;;;;19.67;10.23;;;;;;;22.06;100.00;-12836.72;5074221;28;20192;-64
2022/09/17 04:41:32;;;;;;;18.60;10.65;;;;;;;22.65;100.00;-2120.09;5075373;28;20184;-64
2022/09/17 04:43:59;;;;;;;24.27;9.35;;;;;;;23.32;100.00;14216.59;5075281;28;20189;-64
2022/09/17 04:46:27;;;;;;;16.88;8.80;;;;;;;23.94;100.00;43870.97;5075510;28;20247;-65
2022/09/17 04:48:54;;;;;;;18.77;9.18;;;;;;;24.27;100.00;66475.34;5075293;28;20194;-65
2022/09/17 04:51:21;;;;;;;25.20;9.18;;;;;;;24.63;100.00;90264.41;5075438;28;20566;-64
2022/09/17 04:53:48;;;;;;;15.52;8.38;;;;;;;25.28;100.00;152396.59;5074147;28;20189;-64
2022/09/17 04:56:15;;;;;;;16.58;8.55;;;;;;;25.63;100.00;152486.06;5073823;28;20184;-65
2022/09/17 04:58:42;;;;;;;18.92;9.27;;;;;;;26.06;100.00;152594.72;5074910;28;20184;-64
2022/09/17 05:01:08;;;;;;;20.00;13.10;;;;;;;26.27;100.00;152647.16;5074916;28;20191;-63
2022/09/17 05:03:37;;;;;;;27.60;15.23;;;;;;;26.54;100.00;152716.25;5075209;28;20185;-64
2022/09/17 05:06:04;;;;;;;17.85;11.50;;;;;;;26.56;100.00;152720.09;5075041;28;20299;-64
2022/09/17 05:08:31;;;;;;;26.58;13.32;;;;;;;26.71;100.00;152759.72;5074764;28;20195;-64
2022/09/17 05:11:00;;;;;;;32.83;12.40;;;;;;;27.14;100.00;152867.22;5075048;28;20189;-63
2022/09/17 05:13:27;;;;;;;35.35;14.68;;;;;;;27.75;100.00;153020.81;5075053;28;20591;-64
2022/09/17 05:15:55;;;;;;;31.00;16.80;;;;;;;28.22;100.00;153139.88;5074646;28;20706;-64
2022/09/17 05:18:22;;;;;;;38.67;16.63;;;;;;;28.13;100.00;153118.13;5074587;28;20278;-64
2022/09/17 05:20:50;;;;;;;50.00;18.50;;;;;;;28.56;100.00;153228.19;5074514;28;20192;-65
2022/09/17 05:23:17;;;;;;;61.30;23.17;;;;;;;29.09;100.00;153361.41;5074808;28;20598;-65
2022/09/17 05:25:44;;;;;;;93.95;38.67;;;;;;;28.92;100.00;153319.16;5074706;28;20227;-64
2022/09/17 05:28:11;;;;;;;71.00;32.95;;;;;;;29.02;100.00;153343.50;5074624;28;20195;-65
2022/09/17 05:30:38;;;;;;;54.95;25.70;;;;;;;29.23;100.00;153397.28;5074459;28;20195;-65
2022/09/17 05:33:06;;;;;;;29.80;20.42;;;;;;;28.57;100.00;153230.75;5074450;28;20199;-65
2022/09/17 05:35:35;;;;;;;34.95;19.40;;;;;;;28.22;100.00;153139.88;5073176;28;20193;-65
2022/09/17 05:38:06;;;;;;;33.20;21.23;;;;;;;27.88;100.00;153054.06;5074303;28;20184;-65
2022/09/17 05:40:33;;;;;;;27.25;20.98;;;;;;;28.19;100.00;153133.44;5074287;28;20185;-66
2022/09/17 05:43:01;;;;;;;32.17;21.50;;;;;;;28.84;100.00;153297.38;5074448;28;20193;-65
2022/09/17 05:45:29;;;;;;;27.05;20.15;;;;;;;29.20;100.00;153389.59;5074047;28;20211;-66
2022/09/17 05:47:56;;;;;;;30.92;20.10;;;;;;;28.74;100.00;153271.75;5073324;28;20189;-65
2022/09/17 05:50:23;;;;;;;35.50;20.00;;;;;;;27.93;100.00;153066.84;5074730;28;20643;-65
2022/09/17 05:52:51;;;;;;;43.55;19.52;;;;;;;27.66;100.00;153000.34;5074006;28;20183;-65
2022/09/17 05:55:21;;;;;;;34.17;19.63;;;;;;;28.19;100.00;153133.44;5074606;28;20590;-67
2022/09/17 05:57:48;;;;;;;33.15;18.70;;;;;;;28.30;100.00;153160.34;5074411;28;20258;-66
2022/09/17 06:00:15;;;;;;;28.35;17.35;;;;;;;28.22;100.00;153141.13;5073937;28;20188;-65
2022/09/17 06:02:42;;;;;;;25.35;15.20;;;;;;;28.45;100.00;153200.03;5074222;28;20707;-66
2022/09/17 06:05:10;;;;;;;20.42;13.85;;;;;;;28.54;100.00;153223.09;5073807;28;20191;-65
2022/09/17 06:07:37;;;;;;;30.42;15.43;;;;;;;28.85;100.00;153299.97;5072913;28;20192;-66
2022/09/17 06:10:05;;;;;;;35.30;15.45;;;;;;;29.09;100.00;153360.13;5073988;28;20702;-66
2022/09/17 06:12:34;;;;;;;44.42;16.38;;;;;;;29.07;100.00;153355.03;5073934;28;20188;-66
2022/09/17 06:15:01;;;;;;;48.72;18.00;;;;;;;29.27;100.00;153406.25;5073979;28;20188;-66
2022/09/17 06:17:28;;;;;;;42.70;17.73;;;;;;;29.19;100.00;153387.06;5073435;28;20231;-66
2022/09/17 06:19:55;;;;;;;39.88;16.80;;;;;;;29.59;100.00;153487.00;5073522;28;20185;-65
2022/09/17 06:22:22;;;;;;;44.63;20.50;;;;;;;29.90;100.00;153567.78;5073590;28;20200;-66
2022/09/17 06:24:49;;;;;;;65.85;25.65;;;;;;;30.13;100.00;153625.41;5073468;28;20211;-66
2022/09/17 06:27:16;;;;;;;43.83;20.17;;;;;;;30.72;100.00;153774.19;5072604;28;20205;-66
2022/09/17 06:29:44;;;;;;;40.47;20.00;;;;;;;31.35;100.00;153933.22;5073573;28;20191;-66
2022/09/17 06:32:11;;;;;;;39.42;21.30;;;;;;;31.94;100.00;154084.63;5073156;28;20275;-67
2022/09/17 06:34:39;;;;;;;51.38;24.15;;;;;;;32.64;100.00;154261.78;5073222;28;20188;-66
2022/09/17 06:37:06;;;;;;;52.90;25.20;;;;;;;33.10;100.00;154378.56;5073345;28;20345;-66
2022/09/17 06:39:33;;;;;;;53.80;26.83;;;;;;;33.39;100.00;154453.13;5072240;28;20634;-66
2022/09/17 06:42:00;;;;;;;41.80;25.02;;;;;;;33.59;100.00;154501.91;5073146;28;20196;-65
2022/09/17 06:44:26;;;;;;;46.20;23.77;;;;;;;33.64;100.00;154516.03;5073082;28;20185;-67
2022/09/17 06:46:56;;;;;;;40.55;23.27;;;;;;;33.80;100.00;154555.91;5073358;28;20216;-66
2022/09/17 06:49:23;;;;;;;37.30;20.38;;;;;;;33.43;100.00;154462.13;5073330;28;20188;-67
2022/09/17 06:51:52;;;;;;;34.67;21.17;;;;;;;33.84;100.00;154567.44;5072987;28;20628;-67
2022/09/17 06:54:19;;;;;;;46.05;20.95;;;;;;;34.29;100.00;154680.50;5072828;28;20189;-66
2022/09/17 06:56:46;;;;;;;25.08;13.85;;;;;;;33.57;98.52;154498.03;5072856;28;20563;-67
2022/09/17 06:59:13;;;;;;;23.05;11.07;;;;;;;33.71;96.40;154532.78;5072368;28;20238;-66
2022/09/17 07:01:40;;;;;;;8.52;6.53;;;;;;;32.89;95.07;154325.94;5072391;28;20189;-65
2022/09/17 07:04:08;;;;;;;17.85;10.00;;;;;;;32.27;100.00;154168.06;5072543;28;20275;-67
2022/09/17 07:06:37;;;;;;;18.08;9.05;;;;;;;32.58;100.00;154246.34;5072802;28;20601;-66
2022/09/17 07:09:04;;;;;;;13.77;8.20;;;;;;;32.16;100.00;154139.84;5072520;28;20284;-66
2022/09/17 07:11:31;;;;;;;11.35;6.70;;;;;;;32.42;100.00;154206.53;5072782;28;20189;-65
2022/09/17 07:13:58;;;;;;;15.20;5.93;;;;;;;32.76;99.20;154292.56;5072820;28;20181;-66
2022/09/17 07:16:25;;;;;;;21.05;6.05;;;;;;;32.85;96.95;154315.69;5072685;28;20211;-67
2022/09/17 07:18:52;;;;;;;20.92;8.27;;;;;;;32.83;100.00;154309.28;5072418;28;20184;-65
2022/09/17 07:21:20;;;;;;;12.00;7.45;;;;;;;32.42;100.00;154205.31;5072413;28;20694;-66
2022/09/17 07:23:47;;;;;;;17.67;7.45;;;;;;;32.27;100.00;154168.06;5072658;28;20283;-66
2022/09/17 07:26:16;;;;;;;9.77;6.65;;;;;;;32.21;100.00;154151.41;5072977;28;20383;-66
2022/09/17 07:28:44;;;;;;;19.90;8.00;;;;;;;32.36;100.00;154189.88;5072680;28;20188;-66
2022/09/17 07:31:13;;;;;;;11.18;8.05;;;;;;;32.60;100.00;154251.47;5072252;28;20294;-67
2022/09/17 07:33:40;;;;;;;16.38;10.20;;;;;;;32.72;100.00;154282.31;5072403;28;20697;-67
2022/09/17 07:36:08;;;;;;;9.30;7.13;;;;;;;32.36;100.00;154189.88;5072057;28;20309;-67
2022/09/17 07:38:38;;;;;;;13.00;10.60;;;;;;;31.77;100.00;154041.00;5071979;28;20192;-66
2022/09/17 07:41:07;;;;;;;20.95;11.15;;;;;;;31.96;100.00;154088.44;5072102;28;20192;-66
2022/09/17 07:43:35;;;;;;;8.25;6.65;;;;;;;32.22;100.00;154153.94;5072241;28;20556;-66
2022/09/17 07:46:04;;;;;;;14.45;7.88;;;;;;;32.49;100.00;154223.25;5071787;28;20212;-66
2022/09/17 07:48:32;;;;;;;8.95;5.25;;;;;;;32.66;97.38;154266.94;5071872;28;20184;-66
2022/09/17 07:50:59;;;;;;;20.85;10.65;;;;;;;32.54;100.00;154236.09;5072053;28;20695;-67
2022/09/17 07:53:26;;;;;;;9.63;6.15;;;;;;;32.73;100.00;154284.88;5071825;28;20191;-66
2022/09/17 07:55:56;;;;;;;18.95;7.95;;;;;;;33.13;96.35;154386.31;5072304;28;20208;-65
2022/09/17 07:58:24;;;;;;;16.30;7.68;;;;;;;32.84;98.89;154313.16;5071685;28;20199;-65
2022/09/17 08:00:51;;;;;;;10.55;6.70;;;;;;;33.14;97.39;154387.66;5071572;28;20189;-65
2022/09/17 08:03:19;;;;;;;11.00;8.65;;;;;;;33.07;100.00;154372.19;5072099;28;20185;-66
2022/09/17 08:05:46;;;;;;;15.45;7.13;;;;;;;33.24;97.52;154413.31;5071553;28;20180;-66
2022/09/17 08:08:13;;;;;;;7.68;6.68;;;;;;;33.15;95.68;154391.47;5072060;28;20185;-65
2022/09/17 08:10:40;;;;;;;11.10;6.00;;;;;;;32.79;98.42;154300.31;5071540;28;20188;-66
2022/09/17 08:13:08;;;;;;;11.15;5.05;;;;;;;32.88;98.19;154323.44;5071944;28;20269;-67
2022/09/17 08:15:35;;;;;;;6.38;4.15;;;;;;;32.20;100.00;154148.81;5071924;28;20534;-66
2022/09/17 08:18:02;;;;;;;8.45;4.15;;;;;;;32.11;100.00;154128.31;5071366;28;20231;-66
2022/09/17 08:20:29;;;;;;;11.05;4.50;;;;;;;32.46;99.86;154216.81;5071592;28;20199;-66
2022/09/17 08:23:00;;;;;;;7.78;4.50;;;;;;;32.42;98.75;154205.31;5071816;28;20201;-66
2022/09/17 08:25:27;;;;;;;10.10;3.92;;;;;;;31.68;100.00;154017.91;5071508;28;20184;-66
2022/09/17 08:27:55;;;;;;;15.10;4.03;;;;;;;31.64;100.00;154007.66;5071791;28;20204;-66
2022/09/17 08:30:24;;;;;;;3.47;3.22;;;;;;;32.06;100.00;154115.41;5071375;28;20196;-66
2022/09/17 08:32:51;;;;;;;6.97;3.63;;;;;;;32.48;100.00;154220.66;5071606;28;20280;-66
2022/09/17 08:35:18;;;;;;;7.80;3.50;;;;;;;32.71;98.85;154279.78;5070257;28;20184;-66
2022/09/17 08:37:46;;;;;;;11.48;4.63;;;;;;;32.88;97.05;154323.44;5071727;28;20184;-67
2022/09/17 08:40:21;;;;;;;8.23;3.67;;;;;;;32.27;99.69;154166.78;5071465;28;20200;-65
2022/09/17 08:42:56;;;;;;;6.97;3.45;;;;;;;31.77;100.00;154039.72;5071272;28;20188;-66
2022/09/17 08:45:25;;;;;;;6.38;3.45;;;;;;;32.04;99.32;154110.25;5071575;28;20207;-66
2022/09/17 08:47:56;;;;;;;5.85;4.15;;;;;;;31.91;99.84;154076.91;5071460;28;20586;-66
2022/09/17 08:50:30;;;;;;;6.05;3.50;;;;;;;31.85;100.00;154060.25;5070525;28;20185;-66
2022/09/17 08:53:23;;;;;;;8.07;3.17;;;;;;;31.62;100.00;154002.50;5071660;28;20193;-66
2022/09/17 08:55:59;;;;;;;11.13;3.20;;;;;;;31.85;100.00;154061.53;5070051;28;20189;-66
2022/09/17 08:58:56;;;;;;;3.50;2.97;;;;;;;32.05;99.13;154111.53;5071575;28;20263;-66
2022/09/17 09:01:33;;;;;;;12.63;4.32;;;;;;;32.14;100.00;154135.97;5066513;28;20296;-66
2022/09/17 09:04:18;;;;;;;6.97;4.35;;;;;;;32.17;100.00;154142.38;5071160;28;20661;-65
2022/09/17 09:06:49;;;;;;;7.22;3.40;;;;;;;32.18;100.00;154144.97;5071106;28;20555;-67
2022/09/17 09:09:18;;;;;;;11.68;3.95;;;;;;;32.24;100.00;154159.09;5071036;28;20184;-67
2022/09/17 09:11:47;;;;;;;10.10;3.63;;;;;;;32.10;99.59;154124.44;5070979;28;20188;-65
2022/09/17 09:14:19;;;;;;;13.13;3.70;;;;;;;32.34;100.00;154186.00;5071449;28;20632;-66
2022/09/17 09:16:49;;;;;;;6.45;3.33;;;;;;;32.55;98.97;154239.91;5070751;28;20236;-65
2022/09/17 09:19:23;;;;;;;8.60;4.18;;;;;;;32.25;100.00;154161.66;5071249;28;20618;-67
2022/09/17 09:22:04;;;;;;;10.77;3.20;;;;;;;32.69;100.00;154273.34;5070772;28;20208;-66
2022/09/17 09:24:40;;;;;;;6.55;3.30;;;;;;;32.33;100.00;154182.19;5073841;28;20191;-66
2022/09/17 09:27:16;;;;;;;7.30;3.63;;;;;;;31.66;100.00;154012.75;5074796;28;20208;-65
2022/09/17 09:29:56;;;;;;;5.22;3.85;;;;;;;30.92;100.00;153825.47;5074876;28;20631;-65
2022/09/17 09:32:37;;;;;;;11.52;3.92;;;;;;;31.15;100.00;153883.19;5074628;28;20184;-66
2022/09/17 09:35:16;;;;;;;5.50;3.63;;;;;;;31.15;100.00;153883.19;5074461;28;20187;-66
2022/09/17 09:37:50;;;;;;;17.17;4.13;;;;;;;31.10;100.00;153871.69;5074415;28;20191;-65
2022/09/17 09:40:27;;;;;;;15.43;3.88;;;;;;;31.61;100.00;153999.97;5074575;28;20598;-65
2022/09/17 09:43:00;;;;;;;3.50;3.20;;;;;;;31.32;100.00;153926.78;5074674;28;20628;-66
2022/09/17 09:45:42;;;;;;;8.38;3.40;;;;;;;32.04;100.00;154110.25;5074612;28;20188;-66
2022/09/17 09:48:20;;;;;;;9.35;3.83;;;;;;;31.51;100.00;153974.25;5074369;28;20211;-65
2022/09/17 09:51:02;;;;;;;4.50;3.22;;;;;;;31.06;100.00;153861.44;5074550;28;20184;-66
2022/09/17 09:53:40;;;;;;;5.53;3.50;;;;;;;30.67;100.00;153762.66;5073502;28;20579;-65
2022/09/17 09:56:28;;;;;;;8.65;3.90;;;;;;;31.49;100.00;153970.38;5074334;28;20180;-65
2022/09/17 09:58:55;;;;;;;5.88;3.60;;;;;;;31.81;100.00;154051.28;5074348;28;20203;-65
2022/09/17 10:01:21;;;;;;;3.95;3.53;;;;;;;31.87;100.00;154066.63;5074145;28;20195;-65
2022/09/17 10:03:52;;;;;;;5.20;3.67;;;;;;;31.34;100.00;153930.66;5074173;28;20189;-64
2022/09/17 10:06:20;;;;;;;5.13;3.22;;;;;;;31.57;100.00;153989.72;5074137;28;20284;-65
2022/09/17 10:09:12;;;;;;;6.30;4.13;;;;;;;31.34;100.00;153930.66;5072850;28;20264;-65
2022/09/17 10:11:39;;;;;;;7.63;3.72;;;;;;;30.81;100.00;153797.22;5073946;28;20185;-64
2022/09/17 10:14:23;;;;;;;4.03;3.63;;;;;;;30.66;100.00;153760.06;5073675;28;20198;-65
2022/09/17 10:16:50;;;;;;;7.10;3.38;;;;;;;30.84;100.00;153806.22;5073430;28;20228;-65
2022/09/17 10:19:24;;;;;;;6.15;3.78;;;;;;;31.24;100.00;153907.56;5073615;28;20212;-65
2022/09/17 10:21:51;;;;;;;5.30;3.75;;;;;;;32.15;100.00;154137.28;5073848;28;20220;-65
2022/09/17 10:24:24;;;;;;;6.30;3.40;;;;;;;32.10;100.00;154125.72;5073801;28;20249;-65
2022/09/17 10:26:52;;;;;;;5.75;3.45;;;;;;;32.47;100.00;154218.09;5073581;28;20629;-65
2022/09/17 10:29:21;;;;;;;4.90;3.63;;;;;;;32.15;100.00;154137.28;5073354;28;20192;-65
2022/09/17 10:31:50;;;;;;;3.60;3.30;;;;;;;32.43;100.00;154207.81;5073324;28;20189;-65
2022/09/17 10:34:23;;;;;;;4.75;3.53;;;;;;;32.12;100.00;154129.59;5073264;28;20189;-64
2022/09/17 10:36:50;;;;;;;3.75;3.45;;;;;;;31.81;100.00;154051.28;5073527;28;20632;-64
2022/09/17 10:39:43;;;;;;;5.97;3.75;;;;;;;32.01;100.00;154102.56;5073272;28;20185;-65
2022/09/17 10:42:14;;;;;;;4.63;3.70;;;;;;;32.44;100.00;154210.41;5070300;28;20192;-65
2022/09/17 10:44:52;;;;;;;4.85;3.80;;;;;;;31.90;100.00;154074.38;5073126;28;20192;-64
2022/09/17 10:47:24;;;;;;;4.05;3.50;;;;;;;31.38;100.00;153942.19;5072961;28;20236;-65
2022/09/17 10:49:56;;;;;;;8.73;3.67;;;;;;;31.71;100.00;154026.88;5073343;28;20211;-65
2022/09/17 10:52:25;;;;;;;6.18;4.22;;;;;;;33.29;100.00;154426.16;5072895;28;20184;-65
2022/09/17 10:55:09;;;;;;;6.30;4.00;;;;;;;34.15;100.00;154644.53;5072809;28;20180;-65
2022/09/17 10:57:52;;;;;;;5.32;4.03;;;;;;;33.27;100.00;154421.03;5073092;28;20181;-65
2022/09/17 11:00:22;;;;;;;11.65;4.20;;;;;;;32.15;100.00;154138.56;5072937;28;20188;-65
2022/09/17 11:03:26;;;;;;;8.15;4.20;;;;;;;30.96;100.00;153834.41;5072754;28;20262;-65
2022/09/17 11:06:24;;;;;;;7.50;4.03;;;;;;;29.90;100.00;153566.50;5072941;28;20189;-64
2022/09/17 11:09:01;;;;;;;5.03;4.50;;;;;;;29.99;100.00;153589.56;5071513;28;20213;-65
2022/09/17 11:11:40;;;;;;;4.25;3.95;;;;;;;29.90;100.00;153567.78;5071437;28;20210;-64
2022/09/17 11:14:20;;;;;;;9.10;4.43;;;;;;;29.31;100.00;153416.56;5072747;28;20571;-64
2022/09/17 11:16:59;;;;;;;7.30;4.32;;;;;;;29.45;100.00;153452.44;5072547;28;20232;-64
2022/09/17 11:19:38;;;;;;;7.28;4.45;;;;;;;29.70;100.00;153516.50;5072405;28;20189;-64
2022/09/17 11:22:16;;;;;;;4.90;4.40;;;;;;;29.60;100.00;153489.56;5072292;28;20185;-65
2022/09/17 11:25:14;;;;;;;8.25;4.28;;;;;;;29.47;100.00;153458.81;5072390;28;20195;-65
2022/09/17 11:27:53;;;;;;;5.65;4.05;;;;;;;29.43;100.00;153447.28;5072184;28;20219;-65